sensor_id;sensor_type;location;lat;lon;timestamp;pressure;altitude;pressure_sealevel;temperature;humidity
25510;BME280;13413;52.336;21.200;2023-03-01T00:01:47;101808.23;;;2.13;51.31
25510;BME280;13413;52.336;21.200;2023-03-01T00:04:41;101807.02;;;2.16;51.47
25510;BME280;13413;52.336;21.200;2023-03-01T00:07:35;101801.38;;;2.05;51.56
25510;BME280;13413;52.336;21.200;2023-03-01T00:10:29;101803.33;;;2.01;51.73
25510;BME280;13413;52.336;21.200;2023-03-01T00:13:23;101795.00;;;2.09;51.67
25510;BME280;13413;52.336;21.200;2023-03-01T00:16:25;101796.99;;;2.14;51.66
25510;BME280;13413;52.336;21.200;2023-03-01T00:19:21;101792.95;;;2.18;51.50
25510;BME280;13413;52.336;21.200;2023-03-01T00:22:22;101792.73;;;2.15;51.44
25510;BME280;13413;52.336;21.200;2023-03-01T00:25:16;101790.21;;;2.17;51.53
25510;BME280;13413;52.336;21.200;2023-03-01T00:28:17;101787.76;;;2.11;51.65
25510;BME280;13413;52.336;21.200;2023-03-01T00:31:13;101787.13;;;2.10;51.69
25510;BME280;13413;52.336;21.200;2023-03-01T00:34:08;101789.36;;;2.16;51.62
25510;BME280;13413;52.336;21.200;2023-03-01T00:37:01;101786.78;;;2.19;51.62
25510;BME280;13413;52.336;21.200;2023-03-01T00:39:55;101789.23;;;2.19;51.75
25510;BME280;13413;52.336;21.200;2023-03-01T00:42:49;101791.49;;;2.19;51.63
25510;BME280;13413;52.336;21.200;2023-03-01T00:45:43;101789.11;;;2.12;51.56
25510;BME280;13413;52.336;21.200;2023-03-01T00:48:37;101788.75;;;2.09;51.89
25510;BME280;13413;52.336;21.200;2023-03-01T00:51:32;101786.45;;;2.13;51.79
25510;BME280;13413;52.336;21.200;2023-03-01T00:54:26;101785.51;;;2.01;51.90
25510;BME280;13413;52.336;21.200;2023-03-01T00:59:07;101781.19;;;2.01;51.93
25510;BME280;13413;52.336;21.200;2023-03-01T01:01:59;101782.36;;;2.05;52.16
25510;BME280;13413;52.336;21.200;2023-03-01T01:04:52;101777.51;;;2.01;52.34
25510;BME280;13413;52.336;21.200;2023-03-01T01:07:45;101774.48;;;1.93;52.35
25510;BME280;13413;52.336;21.200;2023-03-01T01:13:52;101767.42;;;1.94;52.42
25510;BME280;13413;52.336;21.200;2023-03-01T01:16:45;101762.64;;;1.96;52.52
25510;BME280;13413;52.336;21.200;2023-03-01T01:19:37;101767.24;;;2.01;52.54
25510;BME280;13413;52.336;21.200;2023-03-01T01:22:36;101767.92;;;2.10;52.59
25510;BME280;13413;52.336;21.200;2023-03-01T01:25:30;101765.70;;;2.15;52.37
25510;BME280;13413;52.336;21.200;2023-03-01T01:28:23;101769.28;;;2.20;52.60
25510;BME280;13413;52.336;21.200;2023-03-01T01:31:17;101765.44;;;2.26;52.71
25510;BME280;13413;52.336;21.200;2023-03-01T01:34:14;101764.14;;;2.24;52.65
25510;BME280;13413;52.336;21.200;2023-03-01T01:37:07;101760.45;;;2.25;52.66
25510;BME280;13413;52.336;21.200;2023-03-01T01:40:02;101750.10;;;2.19;52.70
25510;BME280;13413;52.336;21.200;2023-03-01T01:43:02;101742.51;;;2.21;52.68
25510;BME280;13413;52.336;21.200;2023-03-01T01:45:56;101735.82;;;2.25;52.83
25510;BME280;13413;52.336;21.200;2023-03-01T01:48:49;101741.98;;;2.24;52.70
25510;BME280;13413;52.336;21.200;2023-03-01T01:51:57;101740.31;;;2.25;52.64
25510;BME280;13413;52.336;21.200;2023-03-01T01:54:55;101731.25;;;2.16;52.56
25510;BME280;13413;52.336;21.200;2023-03-01T01:57:52;101739.17;;;2.12;52.73
25510;BME280;13413;52.336;21.200;2023-03-01T02:00:47;101732.39;;;2.15;52.92
25510;BME280;13413;52.336;21.200;2023-03-01T02:03:43;101727.52;;;2.14;52.92
25510;BME280;13413;52.336;21.200;2023-03-01T02:08:50;101727.81;;;2.22;53.03
25510;BME280;13413;52.336;21.200;2023-03-01T02:11:45;101717.70;;;2.18;53.20
25510;BME280;13413;52.336;21.200;2023-03-01T02:14:39;101714.67;;;2.11;53.07
25510;BME280;13413;52.336;21.200;2023-03-01T02:17:39;101716.34;;;2.06;53.26
25510;BME280;13413;52.336;21.200;2023-03-01T02:20:48;101717.51;;;2.04;53.24
25510;BME280;13413;52.336;21.200;2023-03-01T02:23:49;101715.08;;;2.10;53.26
25510;BME280;13413;52.336;21.200;2023-03-01T02:26:46;101712.56;;;2.11;53.26
25510;BME280;13413;52.336;21.200;2023-03-01T02:29:40;101710.16;;;2.10;53.36
25510;BME280;13413;52.336;21.200;2023-03-01T02:32:41;101709.40;;;2.14;53.11
25510;BME280;13413;52.336;21.200;2023-03-01T02:35:37;101707.98;;;2.12;53.28
25510;BME280;13413;52.336;21.200;2023-03-01T02:38:31;101700.65;;;2.06;53.27
25510;BME280;13413;52.336;21.200;2023-03-01T02:41:34;101702.70;;;2.00;53.24
25510;BME280;13413;52.336;21.200;2023-03-01T02:44:28;101692.85;;;1.99;53.54
25510;BME280;13413;52.336;21.200;2023-03-01T02:47:28;101695.54;;;2.04;53.45
25510;BME280;13413;52.336;21.200;2023-03-01T02:50:43;101688.07;;;2.06;53.43
25510;BME280;13413;52.336;21.200;2023-03-01T02:53:44;101679.77;;;1.99;53.61
25510;BME280;13413;52.336;21.200;2023-03-01T02:56:41;101676.71;;;1.94;53.68
25510;BME280;13413;52.336;21.200;2023-03-01T02:59:36;101674.14;;;1.88;53.69
25510;BME280;13413;52.336;21.200;2023-03-01T03:02:30;101679.23;;;1.87;53.77
25510;BME280;13413;52.336;21.200;2023-03-01T03:05:25;101672.52;;;1.85;53.89
25510;BME280;13413;52.336;21.200;2023-03-01T03:08:26;101669.39;;;1.85;53.87
25510;BME280;13413;52.336;21.200;2023-03-01T03:14:00;101667.64;;;1.89;54.05
25510;BME280;13413;52.336;21.200;2023-03-01T03:16:54;101663.90;;;1.87;54.19
25510;BME280;13413;52.336;21.200;2023-03-01T03:19:48;101665.99;;;1.86;54.15
25510;BME280;13413;52.336;21.200;2023-03-01T03:22:42;101670.90;;;1.92;54.13
25510;BME280;13413;52.336;21.200;2023-03-01T03:32:48;101670.42;;;2.21;53.85
25510;BME280;13413;52.336;21.200;2023-03-01T03:35:44;101672.73;;;2.23;53.77
25510;BME280;13413;52.336;21.200;2023-03-01T03:38:38;101673.21;;;2.24;53.80
25510;BME280;13413;52.336;21.200;2023-03-01T03:42:49;101659.45;;;2.24;53.85
25510;BME280;13413;52.336;21.200;2023-03-01T03:45:41;101650.89;;;2.12;53.76
25510;BME280;13413;52.336;21.200;2023-03-01T03:48:44;101647.10;;;2.08;54.02
25510;BME280;13413;52.336;21.200;2023-03-01T03:51:45;101644.07;;;2.13;54.12
25510;BME280;13413;52.336;21.200;2023-03-01T03:54:41;101630.70;;;2.08;54.04
25510;BME280;13413;52.336;21.200;2023-03-01T03:57:28;101627.90;;;2.02;54.07
25510;BME280;13413;52.336;21.200;2023-03-01T04:00:22;101627.53;;;2.06;53.98
25510;BME280;13413;52.336;21.200;2023-03-01T04:03:16;101626.64;;;2.09;54.12
25510;BME280;13413;52.336;21.200;2023-03-01T04:06:10;101637.45;;;2.12;54.20
25510;BME280;13413;52.336;21.200;2023-03-01T04:09:09;101641.21;;;2.22;54.17
25510;BME280;13413;52.336;21.200;2023-03-01T04:12:03;101645.84;;;2.29;54.14
25510;BME280;13413;52.336;21.200;2023-03-01T04:14:55;101639.04;;;2.29;53.97
25510;BME280;13413;52.336;21.200;2023-03-01T04:23:14;101626.45;;;2.18;54.31
25510;BME280;13413;52.336;21.200;2023-03-01T04:26:09;101619.79;;;2.13;54.32
25510;BME280;13413;52.336;21.200;2023-03-01T04:29:10;101620.15;;;2.10;54.18
25510;BME280;13413;52.336;21.200;2023-03-01T04:32:05;101613.10;;;2.05;54.37
25510;BME280;13413;52.336;21.200;2023-03-01T04:34:58;101617.59;;;2.03;54.25
25510;BME280;13413;52.336;21.200;2023-03-01T04:37:59;101615.77;;;1.95;54.55
25510;BME280;13413;52.336;21.200;2023-03-01T04:40:53;101614.08;;;1.92;54.53
25510;BME280;13413;52.336;21.200;2023-03-01T04:47:59;101598.36;;;1.86;54.75
25510;BME280;13413;52.336;21.200;2023-03-01T04:50:53;101606.19;;;1.89;54.72
25510;BME280;13413;52.336;21.200;2023-03-01T04:53:54;101601.64;;;1.96;54.75
25510;BME280;13413;52.336;21.200;2023-03-01T04:56:55;101597.70;;;1.97;54.63
25510;BME280;13413;52.336;21.200;2023-03-01T04:59:49;101606.55;;;1.95;54.70
25510;BME280;13413;52.336;21.200;2023-03-01T05:02:53;101611.70;;;2.00;54.69
25510;BME280;13413;52.336;21.200;2023-03-01T05:05:48;101607.52;;;2.02;54.64
25510;BME280;13413;52.336;21.200;2023-03-01T05:08:49;101606.13;;;2.11;54.78
25510;BME280;13413;52.336;21.200;2023-03-01T05:11:50;101608.20;;;2.11;54.38
25510;BME280;13413;52.336;21.200;2023-03-01T05:14:44;101611.94;;;2.10;54.55
25510;BME280;13413;52.336;21.200;2023-03-01T05:17:38;101609.95;;;2.11;54.51
25510;BME280;13413;52.336;21.200;2023-03-01T05:20:32;101616.48;;;2.10;54.40
25510;BME280;13413;52.336;21.200;2023-03-01T05:26:41;101614.73;;;2.07;54.53
25510;BME280;13413;52.336;21.200;2023-03-01T05:29:37;101624.96;;;2.05;54.60
25510;BME280;13413;52.336;21.200;2023-03-01T05:32:38;101625.95;;;2.03;54.82
25510;BME280;13413;52.336;21.200;2023-03-01T05:35:34;101626.58;;;2.02;54.90
25510;BME280;13413;52.336;21.200;2023-03-01T05:43:51;101642.58;;;2.08;54.83
25510;BME280;13413;52.336;21.200;2023-03-01T05:46:44;101647.29;;;2.05;54.76
25510;BME280;13413;52.336;21.200;2023-03-01T05:49:39;101650.54;;;2.09;54.86
25510;BME280;13413;52.336;21.200;2023-03-01T05:52:57;101646.73;;;2.18;54.77
25510;BME280;13413;52.336;21.200;2023-03-01T05:55:51;101650.86;;;2.24;54.65
25510;BME280;13413;52.336;21.200;2023-03-01T05:58:52;101651.73;;;2.30;54.58
25510;BME280;13413;52.336;21.200;2023-03-01T06:01:53;101647.66;;;2.34;54.75
25510;BME280;13413;52.336;21.200;2023-03-01T06:04:47;101648.59;;;2.39;54.66
25510;BME280;13413;52.336;21.200;2023-03-01T06:07:49;101647.27;;;2.47;54.58
25510;BME280;13413;52.336;21.200;2023-03-01T06:10:44;101650.36;;;2.47;54.77
25510;BME280;13413;52.336;21.200;2023-03-01T06:13:40;101650.58;;;2.49;54.64
25510;BME280;13413;52.336;21.200;2023-03-01T06:16:34;101651.22;;;2.56;54.49
25510;BME280;13413;52.336;21.200;2023-03-01T06:19:29;101649.23;;;2.57;54.54
25510;BME280;13413;52.336;21.200;2023-03-01T06:22:29;101654.52;;;2.56;54.86
25510;BME280;13413;52.336;21.200;2023-03-01T06:25:24;101644.71;;;2.60;54.73
25510;BME280;13413;52.336;21.200;2023-03-01T06:28:25;101639.59;;;2.58;54.75
25510;BME280;13413;52.336;21.200;2023-03-01T06:31:20;101635.20;;;2.55;54.84
25510;BME280;13413;52.336;21.200;2023-03-01T06:34:13;101631.89;;;2.55;54.65
25510;BME280;13413;52.336;21.200;2023-03-01T06:43:05;101640.81;;;2.66;55.01
25510;BME280;13413;52.336;21.200;2023-03-01T06:45:58;101642.02;;;2.72;54.84
25510;BME280;13413;52.336;21.200;2023-03-01T06:48:51;101642.11;;;2.76;54.83
25510;BME280;13413;52.336;21.200;2023-03-01T06:51:44;101642.67;;;2.78;54.87
25510;BME280;13413;52.336;21.200;2023-03-01T06:54:37;101644.94;;;2.90;54.87
25510;BME280;13413;52.336;21.200;2023-03-01T06:57:37;101653.00;;;3.01;54.76
25510;BME280;13413;52.336;21.200;2023-03-01T07:00:30;101653.72;;;3.06;54.67
25510;BME280;13413;52.336;21.200;2023-03-01T07:03:30;101653.70;;;3.12;54.62
25510;BME280;13413;52.336;21.200;2023-03-01T07:06:29;101653.06;;;3.14;54.88
25510;BME280;13413;52.336;21.200;2023-03-01T07:09:22;101651.23;;;3.21;54.77
25510;BME280;13413;52.336;21.200;2023-03-01T07:12:22;101647.23;;;3.23;54.79
25510;BME280;13413;52.336;21.200;2023-03-01T07:15:16;101643.05;;;3.28;54.89
25510;BME280;13413;52.336;21.200;2023-03-01T07:18:15;101639.30;;;3.32;54.84
25510;BME280;13413;52.336;21.200;2023-03-01T07:21:09;101635.17;;;3.39;54.53
25510;BME280;13413;52.336;21.200;2023-03-01T07:24:20;101629.02;;;3.48;54.74
25510;BME280;13413;52.336;21.200;2023-03-01T07:27:14;101634.05;;;3.59;54.71
25510;BME280;13413;52.336;21.200;2023-03-01T07:30:10;101638.83;;;3.66;54.54
25510;BME280;13413;52.336;21.200;2023-03-01T07:33:11;101640.88;;;3.75;54.54
25510;BME280;13413;52.336;21.200;2023-03-01T07:36:07;101641.60;;;3.85;54.55
25510;BME280;13413;52.336;21.200;2023-03-01T07:39:01;101640.45;;;3.95;54.62
25510;BME280;13413;52.336;21.200;2023-03-01T07:42:02;101641.83;;;4.03;54.19
25510;BME280;13413;52.336;21.200;2023-03-01T07:44:56;101639.98;;;4.07;54.19
25510;BME280;13413;52.336;21.200;2023-03-01T07:49:18;101640.00;;;4.25;54.19
25510;BME280;13413;52.336;21.200;2023-03-01T07:52:12;101641.83;;;4.26;54.33
25510;BME280;13413;52.336;21.200;2023-03-01T07:55:08;101636.73;;;4.36;54.14
25510;BME280;13413;52.336;21.200;2023-03-01T07:58:03;101637.81;;;4.46;54.05
25510;BME280;13413;52.336;21.200;2023-03-01T08:00:57;101638.73;;;4.53;54.00
25510;BME280;13413;52.336;21.200;2023-03-01T08:03:55;101638.77;;;4.60;53.95
25510;BME280;13413;52.336;21.200;2023-03-01T08:06:56;101642.69;;;4.70;53.86
25510;BME280;13413;52.336;21.200;2023-03-01T08:09:50;101644.23;;;4.73;53.82
25510;BME280;13413;52.336;21.200;2023-03-01T08:12:44;101645.06;;;4.85;54.02
25510;BME280;13413;52.336;21.200;2023-03-01T08:15:38;101651.48;;;4.91;53.79
25510;BME280;13413;52.336;21.200;2023-03-01T08:18:39;101651.45;;;4.97;53.64
25510;BME280;13413;52.336;21.200;2023-03-01T08:21:33;101650.29;;;5.08;53.83
25510;BME280;13413;52.336;21.200;2023-03-01T08:24:37;101649.46;;;5.20;53.65
25510;BME280;13413;52.336;21.200;2023-03-01T08:27:30;101646.27;;;5.28;53.61
25510;BME280;13413;52.336;21.200;2023-03-01T08:30:32;101644.77;;;5.36;53.62
25510;BME280;13413;52.336;21.200;2023-03-01T08:33:32;101643.84;;;5.44;53.49
25510;BME280;13413;52.336;21.200;2023-03-01T08:36:28;101642.01;;;5.52;53.53
25510;BME280;13413;52.336;21.200;2023-03-01T08:39:22;101635.48;;;5.60;53.62
25510;BME280;13413;52.336;21.200;2023-03-01T08:42:16;101634.93;;;5.75;53.75
25510;BME280;13413;52.336;21.200;2023-03-01T08:45:13;101633.36;;;5.91;53.58
25510;BME280;13413;52.336;21.200;2023-03-01T08:48:56;101630.66;;;6.08;53.60
25510;BME280;13413;52.336;21.200;2023-03-01T08:51:49;101636.23;;;6.18;53.59
25510;BME280;13413;52.336;21.200;2023-03-01T08:54:43;101637.79;;;6.30;53.56
25510;BME280;13413;52.336;21.200;2023-03-01T08:57:43;101640.36;;;6.38;53.36
25510;BME280;13413;52.336;21.200;2023-03-01T09:04:25;101634.13;;;6.64;53.33
25510;BME280;13413;52.336;21.200;2023-03-01T09:07:17;101635.66;;;6.73;53.11
25510;BME280;13413;52.336;21.200;2023-03-01T09:13:19;101624.63;;;6.99;52.83
25510;BME280;13413;52.336;21.200;2023-03-01T09:19:19;101612.70;;;7.10;52.88
25510;BME280;13413;52.336;21.200;2023-03-01T09:22:18;101613.66;;;7.24;52.80
25510;BME280;13413;52.336;21.200;2023-03-01T09:25:12;101613.42;;;7.42;52.58
25510;BME280;13413;52.336;21.200;2023-03-01T09:28:11;101611.48;;;7.64;52.69
25510;BME280;13413;52.336;21.200;2023-03-01T09:31:05;101609.52;;;7.78;52.18
25510;BME280;13413;52.336;21.200;2023-03-01T09:34:04;101606.16;;;7.97;52.17
25510;BME280;13413;52.336;21.200;2023-03-01T09:37:04;101606.38;;;8.20;51.92
25510;BME280;13413;52.336;21.200;2023-03-01T09:39:56;101603.88;;;8.35;51.75
25510;BME280;13413;52.336;21.200;2023-03-01T09:42:59;101601.52;;;8.60;51.58
25510;BME280;13413;52.336;21.200;2023-03-01T09:46:04;101595.91;;;8.68;50.64
25510;BME280;13413;52.336;21.200;2023-03-01T09:49:11;101597.22;;;8.71;50.85
25510;BME280;13413;52.336;21.200;2023-03-01T09:52:16;101597.04;;;8.99;51.13
25510;BME280;13413;52.336;21.200;2023-03-01T09:55:14;101592.51;;;9.30;50.52
25510;BME280;13413;52.336;21.200;2023-03-01T09:58:33;101584.64;;;9.55;50.63
25510;BME280;13413;52.336;21.200;2023-03-01T10:01:31;101579.89;;;9.77;50.16
25510;BME280;13413;52.336;21.200;2023-03-01T10:04:41;101574.15;;;9.94;50.08
25510;BME280;13413;52.336;21.200;2023-03-01T10:07:49;101578.57;;;10.16;49.69
25510;BME280;13413;52.336;21.200;2023-03-01T10:10:48;101574.23;;;10.25;49.08
25510;BME280;13413;52.336;21.200;2023-03-01T10:13:55;101574.46;;;10.20;48.89
25510;BME280;13413;52.336;21.200;2023-03-01T10:17:00;101567.58;;;10.30;48.68
25510;BME280;13413;52.336;21.200;2023-03-01T10:19:55;101568.29;;;10.43;48.15
25510;BME280;13413;52.336;21.200;2023-03-01T10:22:51;101568.31;;;10.45;47.78
25510;BME280;13413;52.336;21.200;2023-03-01T10:25:51;101560.15;;;10.59;48.25
25510;BME280;13413;52.336;21.200;2023-03-01T10:29:02;101561.77;;;10.77;47.37
25510;BME280;13413;52.336;21.200;2023-03-01T10:32:04;101561.42;;;10.74;47.35
25510;BME280;13413;52.336;21.200;2023-03-01T10:39:13;101554.28;;;11.51;47.13
25510;BME280;13413;52.336;21.200;2023-03-01T10:42:21;101557.27;;;11.59;46.38
25510;BME280;13413;52.336;21.200;2023-03-01T10:45:26;101555.11;;;11.55;46.20
25510;BME280;13413;52.336;21.200;2023-03-01T10:48:30;101555.42;;;11.70;46.59
25510;BME280;13413;52.336;21.200;2023-03-01T10:51:31;101553.16;;;12.05;46.35
25510;BME280;13413;52.336;21.200;2023-03-01T10:54:29;101549.70;;;12.20;46.13
25510;BME280;13413;52.336;21.200;2023-03-01T10:57:34;101548.73;;;12.36;45.93
25510;BME280;13413;52.336;21.200;2023-03-01T11:00:29;101547.59;;;12.69;46.34
25510;BME280;13413;52.336;21.200;2023-03-01T11:03:31;101551.33;;;13.22;45.41
25510;BME280;13413;52.336;21.200;2023-03-01T11:06:26;101547.88;;;13.54;45.35
25510;BME280;13413;52.336;21.200;2023-03-01T11:09:22;101545.52;;;13.84;44.29
25510;BME280;13413;52.336;21.200;2023-03-01T11:12:25;101540.92;;;13.77;44.12
25510;BME280;13413;52.336;21.200;2023-03-01T11:15:25;101537.75;;;13.73;44.12
25510;BME280;13413;52.336;21.200;2023-03-01T11:18:28;101535.23;;;13.46;44.06
25510;BME280;13413;52.336;21.200;2023-03-01T11:21:23;101538.09;;;13.36;44.41
25510;BME280;13413;52.336;21.200;2023-03-01T11:24:31;101533.39;;;13.42;44.11
25510;BME280;13413;52.336;21.200;2023-03-01T11:27:54;101528.66;;;13.50;43.88
25510;BME280;13413;52.336;21.200;2023-03-01T11:30:53;101523.05;;;13.63;44.04
25510;BME280;13413;52.336;21.200;2023-03-01T11:33:59;101522.45;;;13.70;44.18
25510;BME280;13413;52.336;21.200;2023-03-01T11:37:12;101524.91;;;13.93;43.59
25510;BME280;13413;52.336;21.200;2023-03-01T11:40:15;101522.84;;;14.04;43.66
25510;BME280;13413;52.336;21.200;2023-03-01T11:43:17;101521.73;;;14.33;43.46
25510;BME280;13413;52.336;21.200;2023-03-01T11:46:46;101518.37;;;14.55;43.12
25510;BME280;13413;52.336;21.200;2023-03-01T11:50:05;101518.63;;;14.74;42.47
25510;BME280;13413;52.336;21.200;2023-03-01T11:53:13;101518.73;;;14.53;42.67
25510;BME280;13413;52.336;21.200;2023-03-01T11:56:29;101525.45;;;14.77;42.47
25510;BME280;13413;52.336;21.200;2023-03-01T11:59:54;101526.65;;;14.97;42.10
25510;BME280;13413;52.336;21.200;2023-03-01T12:08:23;101513.09;;;14.39;41.84
25510;BME280;13413;52.336;21.200;2023-03-01T12:11:27;101507.99;;;14.09;41.69
25510;BME280;13413;52.336;21.200;2023-03-01T12:14:54;101508.46;;;13.59;42.08
25510;BME280;13413;52.336;21.200;2023-03-01T12:21:34;101501.32;;;13.69;42.56
25510;BME280;13413;52.336;21.200;2023-03-01T12:24:46;101499.09;;;13.49;42.37
25510;BME280;13413;52.336;21.200;2023-03-01T12:28:14;101496.92;;;13.54;42.71
25510;BME280;13413;52.336;21.200;2023-03-01T12:31:35;101494.38;;;13.80;42.20
25510;BME280;13413;52.336;21.200;2023-03-01T12:41:20;101494.95;;;14.80;42.15
25510;BME280;13413;52.336;21.200;2023-03-01T12:44:31;101490.67;;;14.54;41.77
25510;BME280;13413;52.336;21.200;2023-03-01T12:52:54;101487.41;;;15.31;41.64
25510;BME280;13413;52.336;21.200;2023-03-01T12:55:50;101488.16;;;15.25;41.32
25510;BME280;13413;52.336;21.200;2023-03-01T12:59:07;101480.99;;;15.03;41.35
25510;BME280;13413;52.336;21.200;2023-03-01T13:02:18;101477.79;;;14.73;41.59
25510;BME280;13413;52.336;21.200;2023-03-01T13:05:29;101479.27;;;14.71;41.84
25510;BME280;13413;52.336;21.200;2023-03-01T13:08:38;101478.32;;;14.62;41.89
25510;BME280;13413;52.336;21.200;2023-03-01T13:11:43;101478.97;;;14.76;41.95
25510;BME280;13413;52.336;21.200;2023-03-01T13:14:46;101476.17;;;14.82;41.59
25510;BME280;13413;52.336;21.200;2023-03-01T13:17:48;101478.91;;;14.90;41.41
25510;BME280;13413;52.336;21.200;2023-03-01T13:20:49;101474.17;;;14.46;41.13
25510;BME280;13413;52.336;21.200;2023-03-01T13:23:50;101466.81;;;14.29;41.50
25510;BME280;13413;52.336;21.200;2023-03-01T13:27:11;101466.03;;;14.14;41.86
25510;BME280;13413;52.336;21.200;2023-03-01T13:30:41;101466.20;;;14.38;41.84
25510;BME280;13413;52.336;21.200;2023-03-01T13:33:44;101463.71;;;14.36;41.79
25510;BME280;13413;52.336;21.200;2023-03-01T13:36:49;101464.48;;;14.42;41.74
25510;BME280;13413;52.336;21.200;2023-03-01T13:39:43;101457.91;;;14.05;41.90
25510;BME280;13413;52.336;21.200;2023-03-01T13:48:10;101448.86;;;14.10;42.13
25510;BME280;13413;52.336;21.200;2023-03-01T13:51:07;101447.88;;;14.05;42.33
25510;BME280;13413;52.336;21.200;2023-03-01T13:54:13;101443.59;;;14.02;42.63
25510;BME280;13413;52.336;21.200;2023-03-01T13:57:32;101442.58;;;14.26;42.69
25510;BME280;13413;52.336;21.200;2023-03-01T14:00:29;101438.67;;;14.45;42.26
25510;BME280;13413;52.336;21.200;2023-03-01T14:03:31;101433.82;;;14.28;41.97
25510;BME280;13413;52.336;21.200;2023-03-01T14:06:27;101437.17;;;14.31;42.23
25510;BME280;13413;52.336;21.200;2023-03-01T14:09:24;101439.25;;;14.33;42.21
25510;BME280;13413;52.336;21.200;2023-03-01T14:12:36;101438.48;;;14.28;42.18
25510;BME280;13413;52.336;21.200;2023-03-01T14:15:35;101435.40;;;14.36;42.42
25510;BME280;13413;52.336;21.200;2023-03-01T14:18:38;101430.04;;;14.46;42.37
25510;BME280;13413;52.336;21.200;2023-03-01T14:21:44;101425.85;;;14.47;42.35
25510;BME280;13413;52.336;21.200;2023-03-01T14:24:40;101422.43;;;14.46;42.39
25510;BME280;13413;52.336;21.200;2023-03-01T14:29:05;101420.02;;;14.40;42.40
25510;BME280;13413;52.336;21.200;2023-03-01T14:32:10;101419.84;;;14.34;42.15
25510;BME280;13413;52.336;21.200;2023-03-01T14:35:03;101410.91;;;14.26;42.37
25510;BME280;13413;52.336;21.200;2023-03-01T14:37:57;101409.30;;;14.26;42.30
25510;BME280;13413;52.336;21.200;2023-03-01T14:40:54;101406.13;;;14.27;42.45
25510;BME280;13413;52.336;21.200;2023-03-01T14:43:59;101402.70;;;14.34;42.31
25510;BME280;13413;52.336;21.200;2023-03-01T14:47:01;101403.45;;;14.27;42.28
25510;BME280;13413;52.336;21.200;2023-03-01T14:49:59;101397.50;;;14.23;42.37
25510;BME280;13413;52.336;21.200;2023-03-01T14:54:22;101398.98;;;14.03;42.55
25510;BME280;13413;52.336;21.200;2023-03-01T14:57:20;101400.33;;;13.92;42.54
25510;BME280;13413;52.336;21.200;2023-03-01T15:00:21;101393.95;;;13.57;42.45
25510;BME280;13413;52.336;21.200;2023-03-01T15:03:27;101400.66;;;13.11;42.89
25510;BME280;13413;52.336;21.200;2023-03-01T15:06:24;101397.82;;;12.90;43.21
25510;BME280;13413;52.336;21.200;2023-03-01T15:09:18;101397.02;;;12.86;43.33
25510;BME280;13413;52.336;21.200;2023-03-01T15:12:40;101393.58;;;12.65;43.44
25510;BME280;13413;52.336;21.200;2023-03-01T15:15:37;101388.30;;;12.33;43.81
25510;BME280;13413;52.336;21.200;2023-03-01T15:18:42;101386.61;;;12.14;44.02
25510;BME280;13413;52.336;21.200;2023-03-01T15:21:46;101387.06;;;12.12;44.30
25510;BME280;13413;52.336;21.200;2023-03-01T15:24:41;101386.20;;;12.10;44.26
25510;BME280;13413;52.336;21.200;2023-03-01T15:27:46;101389.88;;;12.07;44.38
25510;BME280;13413;52.336;21.200;2023-03-01T15:30:41;101390.12;;;12.09;44.47
25510;BME280;13413;52.336;21.200;2023-03-01T15:33:42;101389.13;;;11.95;44.55
25510;BME280;13413;52.336;21.200;2023-03-01T15:36:38;101384.00;;;11.88;44.78
25510;BME280;13413;52.336;21.200;2023-03-01T15:39:38;101380.12;;;11.83;44.86
25510;BME280;13413;52.336;21.200;2023-03-01T15:42:39;101374.87;;;11.69;45.02
25510;BME280;13413;52.336;21.200;2023-03-01T15:45:34;101369.26;;;11.49;45.33
25510;BME280;13413;52.336;21.200;2023-03-01T15:57:48;101372.11;;;11.25;45.81
25510;BME280;13413;52.336;21.200;2023-03-01T16:00:42;101368.11;;;11.17;46.08
25510;BME280;13413;52.336;21.200;2023-03-01T16:03:43;101364.13;;;11.12;46.11
25510;BME280;13413;52.336;21.200;2023-03-01T16:06:36;101365.45;;;11.12;46.19
25510;BME280;13413;52.336;21.200;2023-03-01T16:09:30;101368.96;;;11.12;46.15
25510;BME280;13413;52.336;21.200;2023-03-01T16:15:22;101371.23;;;11.05;46.35
25510;BME280;13413;52.336;21.200;2023-03-01T16:22:51;101379.45;;;10.96;46.44
25510;BME280;13413;52.336;21.200;2023-03-01T16:25:43;101380.22;;;10.81;46.59
25510;BME280;13413;52.336;21.200;2023-03-01T16:28:43;101377.74;;;10.72;46.63
25510;BME280;13413;52.336;21.200;2023-03-01T16:31:42;101373.91;;;10.70;46.77
25510;BME280;13413;52.336;21.200;2023-03-01T16:34:35;101372.69;;;10.64;46.86
25510;BME280;13413;52.336;21.200;2023-03-01T16:37:35;101364.64;;;10.53;46.78
25510;BME280;13413;52.336;21.200;2023-03-01T16:40:28;101363.16;;;10.41;47.04
25510;BME280;13413;52.336;21.200;2023-03-01T16:43:22;101372.61;;;10.40;46.93
25510;BME280;13413;52.336;21.200;2023-03-01T16:46:16;101378.55;;;10.36;47.03
25510;BME280;13413;52.336;21.200;2023-03-01T16:49:16;101374.86;;;10.28;47.06
25510;BME280;13413;52.336;21.200;2023-03-01T16:52:16;101372.92;;;10.19;47.23
25510;BME280;13413;52.336;21.200;2023-03-01T16:55:10;101370.61;;;9.97;47.45
25510;BME280;13413;52.336;21.200;2023-03-01T16:58:09;101372.45;;;9.87;47.36
25510;BME280;13413;52.336;21.200;2023-03-01T17:01:08;101371.13;;;9.77;47.57
25510;BME280;13413;52.336;21.200;2023-03-01T17:04:18;101376.33;;;9.61;47.63
25510;BME280;13413;52.336;21.200;2023-03-01T17:07:12;101381.89;;;9.47;47.66
25510;BME280;13413;52.336;21.200;2023-03-01T17:10:08;101383.77;;;9.45;47.84
25510;BME280;13413;52.336;21.200;2023-03-01T17:13:03;101384.55;;;9.36;48.01
25510;BME280;13413;52.336;21.200;2023-03-01T17:15:56;101386.41;;;9.27;47.99